Latest Weather Observations for Horsley Park

IDN60901

Issued at 8:25 am EST Wednesday 24 September 2014 (issued every 10 minutes, with the page automatically refreshed every 10 minutes)

About weather observations | Map of Sydney area stations | Latest observations for Sydney area | Other Formats
Station Details ID: 067119 Name: HORSLEY PARK EQUESTRIAN CENTRE AWS Lat: -33.85 Lon: 150.86 Height: 100.0 m
Data from the previous 72 hours. | See also: Recent months at Horsley Park
Date/Time
EST
Tmp

°C
App
Tmp
°C
Dew
Point
°C
Rel
Hum
%
Delta-T

°C
Wind Press
QNH
hPa
Press
MSL
hPa
Rain
since
9 am
mm
Dir
 
Spd
km/h
Gust
km/h
Spd
kts
Gust
kts
24/08:00am 12.9 - 11.1 89 1.0 - - - - - - - 0.0
24/07:30am 12.8 - 12.0 95 0.4 - - - - - - - 0.0
24/07:00am 11.1 - 10.9 99 0.1 - - - - - - - 0.0
24/06:30am 9.6 - 9.5 99 0.0 - - - - - - - 0.0
24/06:00am 9.0 - 8.7 98 0.1 - - - - - - - 0.0
24/05:30am 9.5 - 9.2 98 0.1 - - - - - - - 0.0
24/05:00am 8.4 - 7.8 96 0.3 - - - - - - - 0.0
24/04:30am 9.1 - 8.6 97 0.2 - - - - - - - 0.0
24/04:00am 10.4 - 10.1 98 0.2 - - - - - - - 0.0
24/03:30am 9.5 - 8.9 96 0.3 - - - - - - - 0.0
24/03:00am 10.0 - 9.4 96 0.3 - - - - - - - 0.0
24/02:30am 10.3 - 9.5 95 0.4 - - - - - - - 0.0
24/02:00am 11.0 - 10.2 95 0.4 - - - - - - - 0.0
24/01:30am 11.7 - 11.1 96 0.3 - - - - - - - 0.0
24/01:00am 11.3 - 10.5 95 0.4 - - - - - - - 0.0
24/12:30am 12.1 - 11.6 97 0.3 - - - - - - - 0.0
24/12:00am 11.6 - 11.0 96 0.3 - - - - - - - 0.0
 
Date/Time
EST
Tmp

°C
App
Tmp
°C
Dew
Point
°C
Rel
Hum
%
Delta-T

°C
Wind Press
QNH
hPa
Press
MSL
hPa
Rain
since
9 am
mm
Dir
 
Spd
km/h
Gust
km/h
Spd
kts
Gust
kts
23/11:30pm 11.5 - 10.7 95 0.4 - - - - - - - 0.0
23/11:00pm 11.4 - 10.3 93 0.6 - - - - - - - 0.0
23/10:30pm 11.5 - 10.4 93 0.6 - - - - - - - 0.0
23/10:00pm 11.7 - 10.4 92 0.7 - - - - - - - 0.0
23/09:30pm 12.1 - 10.7 91 0.7 - - - - - - - 0.0
23/09:00pm 12.0 - 9.7 86 1.2 - - - - - - - 0.0
23/08:30pm 12.3 - 10.2 87 1.1 - - - - - - - 0.0
23/08:00pm 13.3 - 10.5 83 1.5 - - - - - - - 0.0
23/07:30pm 14.4 - 10.0 75 2.3 - - - - - - - 0.0
23/07:00pm 15.1 - 10.3 73 2.5 - - - - - - - 0.0
23/06:30pm 15.9 - 10.2 69 3.0 - - - - - - - 0.0
23/06:00pm 16.6 - 10.0 65 3.5 - - - - - - - 0.0
23/05:30pm 18.0 - 9.9 59 4.3 - - - - - - - 0.0
23/05:00pm 19.1 - 9.9 55 4.9 - - - - - - - 0.0
23/04:30pm 20.2 - 9.2 49 5.8 - - - - - - - 0.0
23/04:00pm 21.2 - 9.1 46 6.5 - - - - - - - 0.0
23/03:30pm 21.4 - 8.7 44 6.7 - - - - - - - 0.0
23/03:00pm 21.8 - 9.0 44 6.8 - - - - - - - 0.0
23/02:30pm 22.6 - 6.0 34 8.4 - - - - - - - 0.0
23/02:00pm 22.7 - 7.7 38 7.9 - - - - - - - 0.0
23/01:30pm 21.6 - 7.4 40 7.4 - - - - - - - 0.0
23/01:00pm 21.8 - 6.5 37 7.8 - - - - - - - 0.0
23/12:30pm 21.0 - 6.5 39 7.4 - - - - - - - 0.0
23/12:00pm 20.9 - 6.1 38 7.5 - - - - - - - 0.0
23/11:30am 20.1 - 4.6 36 7.5 - - - - - - - 0.0
23/11:00am 19.3 - 5.7 41 6.7 - - - - - - - 0.0
23/10:30am 18.9 - 8.0 49 5.6 - - - - - - - 0.0
23/10:00am 18.0 - 8.0 52 5.1 - - - - - - - 0.0
23/09:30am 16.8 - 10.0 64 3.6 - - - - - - - 0.0
23/09:00am 14.9 - 8.8 67 3.1 - - - - - - - 0.0
23/08:30am 14.1 - 9.1 72 2.6 - - - - - - - 0.0
23/08:00am 12.2 - 9.0 81 1.6 - - - - - - - 0.0
23/07:30am 10.9 - 8.8 87 1.0 - - - - - - - 0.0
23/07:00am 9.6 - 8.4 92 0.6 - - - - - - - 0.0
23/06:30am 7.3 - 6.6 95 0.3 - - - - - - - 0.0
23/06:00am 6.9 - 6.0 94 0.4 - - - - - - - 0.0
23/05:30am 7.4 - 6.5 94 0.4 - - - - - - - 0.0
23/05:00am 7.8 - 6.7 93 0.5 - - - - - - - 0.0
23/04:30am 8.3 - 7.5 95 0.4 - - - - - - - 0.0
23/04:00am 7.7 - 6.8 94 0.4 - - - - - - - 0.0
23/03:30am 8.0 - 6.8 92 0.6 - - - - - - - 0.0
23/03:00am 8.3 - 7.2 93 0.5 - - - - - - - 0.0
23/02:30am 8.8 - 7.6 92 0.6 - - - - - - - 0.0
23/02:00am 9.1 - 8.0 93 0.5 - - - - - - - 0.0
23/01:30am 9.5 - 7.6 88 0.9 - - - - - - - 0.0
23/01:00am 10.3 - 8.6 89 0.8 - - - - - - - 0.0
23/12:30am 9.8 - 7.9 88 0.9 - - - - - - - 0.0
23/12:00am 10.5 - 8.4 87 1.0 - - - - - - - 0.0
 
Date/Time
EST
Tmp

°C
App
Tmp
°C
Dew
Point
°C
Rel
Hum
%
Delta-T

°C
Wind Press
QNH
hPa
Press
MSL
hPa
Rain
since
9 am
mm
Dir
 
Spd
km/h
Gust
km/h
Spd
kts
Gust
kts
22/11:30pm 10.7 - 8.5 86 1.1 - - - - - - - 0.0
22/11:00pm 10.6 - 8.2 85 1.2 - - - - - - - 0.0
22/10:30pm 10.6 - 8.2 85 1.2 - - - - - - - 0.0
22/10:00pm 10.9 - 8.5 85 1.2 - - - - - - - 0.0
22/09:30pm 10.7 - 8.1 84 1.3 - - - - - - - 0.0
22/09:00pm 11.7 - 8.7 82 1.5 - - - - - - - 0.0
22/08:30pm 11.7 - 8.2 79 1.7 - - - - - - - 0.0
22/08:00pm 12.3 - 8.0 75 2.1 - - - - - - - 0.0
22/07:30pm 13.4 - 7.6 68 2.9 - - - - - - - 0.0
22/07:00pm 14.5 - 8.0 65 3.3 - - - - - - - 0.0
22/06:30pm 15.0 - 7.5 61 3.7 - - - - - - - 0.0
22/06:00pm 16.0 - 7.7 58 4.2 - - - - - - - 0.0
22/05:30pm 16.9 - 7.8 55 4.6 - - - - - - - 0.0
22/05:00pm 17.8 - 8.4 54 4.9 - - - - - - - 0.0
22/04:30pm 18.3 - 8.3 52 5.2 - - - - - - - 0.0
22/04:00pm 19.3 - 8.3 49 5.7 - - - - - - - 0.0
22/03:30pm 19.9 - 7.9 46 6.2 - - - - - - - 0.0
22/03:00pm 21.1 - 5.5 36 7.8 - - - - - - - 0.0
22/02:30pm 20.7 - 4.7 35 7.8 - - - - - - - 0.0
22/02:00pm 20.4 - 6.0 39 7.2 - - - - - - - 0.0
22/01:30pm 20.1 - 6.1 40 7.0 - - - - - - - 0.0
22/01:00pm 20.3 - 5.9 39 7.2 - - - - - - - 0.0
22/12:30pm 18.7 - 6.2 44 6.2 - - - - - - - 0.0
22/12:00pm 18.5 - 5.7 43 6.3 - - - - - - - 0.0
22/11:30am 19.1 - 8.7 51 5.4 - - - - - - - 0.0
22/11:00am 17.9 - 8.2 53 5.0 - - - - - - - 0.0
22/10:30am 18.8 - 9.8 56 4.8 - - - - - - - 0.0
22/10:00am 16.5 - 7.7 56 4.4 - - - - - - - 0.0
22/09:30am 16.7 - 8.1 57 4.4 - - - - - - - 0.0
22/09:00am 17.5 - 10.6 64 3.7 - - - - - - - 0.0
22/08:30am 15.9 - 9.6 66 3.3 - - - - - - - 0.0
22/08:00am 14.9 - 9.9 72 2.6 - - - - - - - 0.0
22/07:30am 13.0 - 9.3 78 1.9 - - - - - - - 0.0
22/07:00am 12.5 - 9.3 81 1.6 - - - - - - - 0.0
22/06:30am 11.6 - 9.3 86 1.2 - - - - - - - 0.0
22/06:00am 9.9 - 8.2 89 0.8 - - - - - - - 0.0
22/05:30am 9.9 - 7.8 87 1.0 - - - - - - - 0.0
22/05:00am 10.6 - 8.2 85 1.2 - - - - - - - 0.0
22/04:30am 11.1 - 9.0 87 1.0 - - - - - - - 0.0
22/04:00am 10.1 - 8.5 90 0.8 - - - - - - - 0.0
22/03:30am 9.4 - 8.0 91 0.7 - - - - - - - 0.0
22/03:00am 9.5 - 7.6 88 0.9 - - - - - - - 0.0
22/02:30am 10.4 - 7.6 83 1.4 - - - - - - - 0.0
22/02:00am 11.0 - 7.9 81 1.5 - - - - - - - 0.0
22/01:30am 12.0 - 8.5 79 1.7 - - - - - - - 0.0
22/01:00am 12.5 - 8.6 77 2.0 - - - - - - - 0.0
22/12:30am 12.5 - 8.8 78 1.9 - - - - - - - 0.0
22/12:00am 11.9 - 8.7 81 1.6 - - - - - - - 0.0
 
Date/Time
EST
Tmp

°C
App
Tmp
°C
Dew
Point
°C
Rel
Hum
%
Delta-T

°C
Wind Press
QNH
hPa
Press
MSL
hPa
Rain
since
9 am
mm
Dir
 
Spd
km/h
Gust
km/h
Spd
kts
Gust
kts
21/11:30pm 11.3 - 8.2 81 1.5 - - - - - - - 0.0
21/11:00pm 10.9 - 7.6 80 1.6 - - - - - - - 0.0
21/10:30pm 11.8 - 7.9 77 1.9 - - - - - - - 0.0
21/10:00pm 12.3 - 8.0 75 2.1 - - - - - - - 0.0
21/09:30pm 13.4 - 8.5 72 2.5 - - - - - - - 0.0
21/09:00pm 13.2 - 8.9 75 2.2 - - - - - - - 0.0
21/08:30pm 13.0 - 8.9 76 2.1 - - - - - - - 0.0
21/08:00pm 11.6 - 7.9 78 1.8 - - - - - - - 0.0
21/07:30pm 12.5 - 7.2 70 2.6 - - - - - - - 0.0
21/07:00pm 13.8 - 8.0 68 2.9 - - - - - - - 0.0
21/06:30pm 14.2 - 7.9 66 3.1 - - - - - - - 0.0
21/06:00pm 14.7 - 7.7 63 3.5 - - - - - - - 0.0
21/05:30pm 15.4 - 7.9 61 3.8 - - - - - - - 0.0
21/05:00pm 16.3 - 8.0 58 4.2 - - - - - - - 0.0
21/04:30pm 17.5 - 7.8 53 4.9 - - - - - - - 0.0
21/04:00pm 18.4 - 8.1 51 5.3 - - - - - - - 0.0
21/03:30pm 19.7 - 6.8 43 6.5 - - - - - - - 0.0
21/03:00pm 20.0 - 6.7 42 6.7 - - - - - - - 0.0
21/02:30pm 19.8 - 6.9 43 6.5 - - - - - - - 0.0
21/02:00pm 19.9 - 7.3 44 6.5 - - - - - - - 0.0
21/01:30pm 19.6 - 6.7 43 6.5 - - - - - - - 0.0
21/01:00pm 18.5 - 5.4 42 6.4 - - - - - - - 0.0
21/12:30pm 18.4 - 6.9 47 5.8 - - - - - - - 0.0
21/12:00pm 18.7 - 6.2 44 6.2 - - - - - - - 0.0
21/11:30am 18.4 - 5.9 44 6.2 - - - - - - - 0.0
21/11:00am 17.9 - 6.1 46 5.8 - - - - - - - 0.0
21/10:30am 16.9 - 6.7 51 5.1 - - - - - - - 0.0
21/10:00am 16.4 - 8.4 59 4.1 - - - - - - - 0.0
21/09:30am 15.6 - 8.4 62 3.7 - - - - - - - 0.0
21/09:00am 14.7 - 8.2 65 3.3 - - - - - - - 0.0
21/08:30am 14.0 - 7.8 66 3.1 - - - - - - - 0.0

Latest Capital City Observations: Canberra | Sydney | Melbourne | Brisbane | Adelaide | Perth | Hobart | Darwin

Other Formats:

Comma delimited format used in spreadsheet applications
http://www.bom.gov.au/fwo/IDN60901/IDN60901.94760.axf

JavaScript Object Notation format (JSON) in row-major order
http://www.bom.gov.au/fwo/IDN60901/IDN60901.94760.json